Time;durP1;ratioP1;P1;durP2;ratioP2;P2;SDS_P1;SDS_P2;PMS_P1;PMS_P2;Temp;Humidity;BMP_temperature;BMP_pressure;BME280_temperature;BME280_humidity;BME280_pressure;Samples;Min_cycle;Max_cycle;Signal;HPM_P1;HPM_P2
2023/02/02 00:04:16;;;;;;;4.40;1.65;;;;;;;7.19;77.71;100542.19;10349491;28;20534;-44
2023/02/02 00:09:19;;;;;;;5.95;1.70;;;;;;;7.18;77.71;100548.47;10345086;28;20042;-44
2023/02/02 00:14:21;;;;;;;2.85;1.42;;;;;;;7.19;78.16;100535.13;10341765;28;20519;-45
2023/02/02 00:19:25;;;;;;;3.03;1.27;;;;;;;7.29;78.08;100555.72;10345873;28;20442;-44
2023/02/02 00:24:27;;;;;;;7.10;1.77;;;;;;;7.27;78.29;100537.28;10345740;28;20087;-45
2023/02/02 00:29:30;;;;;;;6.80;2.30;;;;;;;7.22;78.54;100540.22;10343058;28;20577;-45
2023/02/02 00:34:31;;;;;;;3.75;1.05;;;;;;;7.16;79.12;100530.03;10346465;28;20727;-45
2023/02/02 00:39:33;;;;;;;6.57;1.65;;;;;;;7.19;79.55;100534.25;10346660;28;20053;-44
2023/02/02 00:49:54;;;;;;;6.03;1.50;;;;;;;7.23;79.96;100543.72;10347913;28;20132;-44
2023/02/02 00:54:55;;;;;;;4.07;1.30;;;;;;;7.22;79.67;100539.34;10350197;28;20056;-45
2023/02/02 00:59:57;;;;;;;7.75;2.15;;;;;;;7.29;79.96;100561.88;10353695;28;20231;-45
2023/02/02 01:04:58;;;;;;;4.22;1.73;;;;;;;7.36;79.49;100563.19;10354485;28;20042;-45
2023/02/02 01:10:00;;;;;;;6.57;1.63;;;;;;;7.40;78.88;100567.38;10353519;28;20160;-46
2023/02/02 01:15:02;;;;;;;6.43;2.30;;;;;;;7.39;79.06;100557.72;10350496;28;20047;-45
2023/02/02 01:20:05;;;;;;;4.55;1.80;;;;;;;7.42;79.15;100561.97;10350435;28;20070;-45
2023/02/02 01:25:07;;;;;;;5.30;2.20;;;;;;;7.39;79.10;100554.22;10350989;28;20441;-45
2023/02/02 01:30:10;;;;;;;5.47;1.83;;;;;;;7.46;79.37;100563.50;10349181;28;20050;-46
2023/02/02 01:35:11;;;;;;;7.68;1.80;;;;;;;7.44;79.93;100576.81;10352535;28;20743;-45
2023/02/02 01:40:13;;;;;;;7.63;2.10;;;;;;;7.41;81.04;100582.28;10352659;28;20049;-45
2023/02/02 01:45:27;;;;;;;5.82;2.00;;;;;;;7.48;81.91;100603.13;10354875;28;20065;-45
2023/02/02 01:50:31;;;;;;;;;;;;;;;7.54;82.14;100600.09;10347852;28;20123;-45
2023/02/02 01:55:35;;;;;;;5.82;2.13;;;;;;;7.50;82.00;100594.13;10351739;28;19925;-45
2023/02/02 02:00:39;;;;;;;6.33;2.17;;;;;;;7.51;81.56;100584.38;10350312;28;20104;-44
2023/02/02 02:05:50;;;;;;;5.75;2.63;;;;;;;7.47;81.67;100577.56;10359499;28;20459;-45
2023/02/02 02:10:51;;;;;;;5.13;2.13;;;;;;;7.49;81.57;100581.84;10347075;28;20041;-45
2023/02/02 02:16:32;;;;;;;3.45;1.40;;;;;;;7.51;81.28;100577.28;10352848;28;20395;-45
2023/02/02 02:27:27;;;;;;;;;;;;;;;7.55;81.51;100583.22;10348454;28;20058;-44
2023/02/02 02:32:34;;;;;;;5.70;1.73;;;;;;;7.47;81.68;100580.22;10347027;28;19932;-44
2023/02/02 02:37:45;;;;;;;4.20;1.13;;;;;;;7.51;81.42;100576.44;10346834;28;20294;-45
2023/02/02 02:42:52;;;;;;;1.88;1.10;;;;;;;7.47;82.18;100577.56;10349319;28;20132;-45
2023/02/02 02:47:54;;;;;;;4.65;1.77;;;;;;;7.52;82.17;100576.34;10335326;28;20392;-45
2023/02/02 02:53:04;;;;;;;4.45;1.58;;;;;;;7.49;82.64;100575.66;10346940;28;20041;-46
2023/02/02 02:58:12;;;;;;;6.35;1.67;;;;;;;7.41;83.47;100570.84;10345184;28;20050;-45
2023/02/02 03:03:27;;;;;;;7.55;1.70;;;;;;;7.18;84.38;100548.47;10343383;28;20380;-45
2023/02/02 03:08:38;;;;;;;3.75;1.80;;;;;;;7.36;84.65;100568.50;10347466;28;20492;-44
2023/02/02 03:13:41;;;;;;;4.35;1.90;;;;;;;7.31;84.90;100557.34;10346131;28;20056;-45
2023/02/02 03:18:42;;;;;;;5.97;2.13;;;;;;;7.37;85.40;100577.28;10343369;28;20432;-45
2023/02/02 03:23:43;;;;;;;4.07;2.22;;;;;;;7.18;84.87;100548.47;10351342;28;20059;-45
2023/02/02 03:28:45;;;;;;;4.60;2.20;;;;;;;7.31;85.71;100569.72;10342457;28;20057;-45
2023/02/02 03:33:46;;;;;;;4.50;2.08;;;;;;;7.15;86.04;100559.25;10344767;28;20037;-45
2023/02/02 03:38:48;;;;;;;5.43;2.00;;;;;;;7.35;86.33;100569.44;10350869;28;20057;-45
2023/02/02 03:43:49;;;;;;;4.82;2.20;;;;;;;7.33;86.13;100571.34;10348837;28;20046;-46
2023/02/02 03:48:51;;;;;;;4.00;2.15;;;;;;;7.14;87.22;100562.81;10347550;28;20454;-45
2023/02/02 03:53:52;;;;;;;4.10;1.95;;;;;;;7.28;87.04;100568.13;10342902;28;20289;-45
2023/02/02 03:58:53;;;;;;;5.38;1.90;;;;;;;7.29;86.90;100559.22;10346872;28;20046;-51
2023/02/02 04:03:56;;;;;;;4.65;1.85;;;;;;;7.33;87.11;100573.97;10344790;28;20077;-44
2023/02/02 04:08:57;;;;;;;7.13;1.75;;;;;;;7.38;86.74;100577.19;10346305;28;20750;-45
2023/02/02 04:13:59;;;;;;;4.85;2.10;;;;;;;7.42;85.83;100588.47;10350735;28;20069;-45
2023/02/02 04:19:00;;;;;;;7.40;2.42;;;;;;;7.37;85.71;100594.03;10340714;28;20060;-45
2023/02/02 04:24:02;;;;;;;3.60;1.55;;;;;;;7.40;85.15;100585.91;10344274;28;20068;-44
2023/02/02 04:29:03;;;;;;;3.55;2.03;;;;;;;7.39;85.22;100600.09;10347960;28;20066;-44
2023/02/02 04:34:04;;;;;;;3.92;1.90;;;;;;;7.45;85.05;100606.81;10340275;28;20058;-45
2023/02/02 04:39:06;;;;;;;3.65;1.50;;;;;;;7.49;84.35;100595.09;10341986;28;20053;-44
2023/02/02 04:44:14;;;;;;;4.32;1.63;;;;;;;7.50;83.83;100610.00;10337248;28;20374;-45
2023/02/02 04:49:15;;;;;;;3.80;1.77;;;;;;;7.54;83.83;100623.94;10350136;28;20625;-46
2023/02/02 04:54:17;;;;;;;4.88;2.10;;;;;;;7.56;83.06;100628.16;10342940;28;20041;-45
2023/02/02 04:59:18;;;;;;;5.43;2.00;;;;;;;7.56;83.02;100627.34;10341169;28;20138;-44
2023/02/02 05:04:20;;;;;;;5.75;1.75;;;;;;;7.56;82.54;100627.34;10327380;28;20090;-48
2023/02/02 05:09:21;;;;;;;3.58;1.85;;;;;;;7.54;82.93;100618.63;10337821;28;20102;-44
2023/02/02 05:14:22;;;;;;;4.53;1.67;;;;;;;7.59;82.87;100635.09;10341433;28;20099;-45
2023/02/02 05:19:24;;;;;;;4.57;1.42;;;;;;;7.62;82.24;100637.53;10341020;28;20081;-44
2023/02/02 05:24:26;;;;;;;3.28;1.38;;;;;;;7.61;82.73;100626.09;10344795;28;20064;-46
2023/02/02 05:29:29;;;;;;;3.28;1.20;;;;;;;7.52;83.17;100641.69;10341781;28;20056;-45
2023/02/02 05:34:30;;;;;;;3.70;1.77;;;;;;;7.47;84.07;100643.78;10349040;28;20157;-44
2023/02/02 05:39:32;;;;;;;3.03;1.33;;;;;;;7.51;84.20;100642.66;10347218;28;20077;-43
2023/02/02 05:44:34;;;;;;;5.65;2.67;;;;;;;7.50;84.58;100643.59;10328647;28;20068;-45
2023/02/02 05:49:35;;;;;;;3.90;1.70;;;;;;;7.44;84.45;100645.66;10354104;28;20088;-44
2023/02/02 05:54:36;;;;;;;4.35;1.52;;;;;;;7.49;84.24;100652.50;10348707;28;20053;-44
2023/02/02 05:59:38;;;;;;;5.47;2.25;;;;;;;7.55;84.09;100654.75;10357267;28;20060;-44
2023/02/02 06:04:39;;;;;;;4.90;2.25;;;;;;;7.58;83.96;100643.97;10350331;28;20060;-44
2023/02/02 06:09:41;;;;;;;2.78;1.38;;;;;;;7.55;83.96;100652.09;10351218;28;20057;-43
2023/02/02 06:14:42;;;;;;;4.00;1.75;;;;;;;7.55;84.70;100650.34;10349396;28;20072;-43
2023/02/02 06:19:43;;;;;;;3.78;1.95;;;;;;;7.51;84.40;100645.31;10351196;28;20653;-44
2023/02/02 06:24:45;;;;;;;4.93;2.30;;;;;;;7.46;85.54;100665.91;10347837;28;20053;-43
2023/02/02 06:29:46;;;;;;;4.63;2.05;;;;;;;7.41;85.60;100651.16;10343191;28;20491;-44
2023/02/02 06:34:48;;;;;;;3.42;1.80;;;;;;;7.31;86.00;100663.28;10341171;28;20064;-44
2023/02/02 06:39:49;;;;;;;5.72;2.05;;;;;;;7.38;86.43;100672.53;10341982;28;20060;-46
2023/02/02 06:44:51;;;;;;;4.30;2.22;;;;;;;7.47;86.47;100670.28;10345343;28;20049;-44
2023/02/02 06:49:52;;;;;;;5.13;1.85;;;;;;;7.44;85.89;100692.50;10344534;28;20057;-44
2023/02/02 06:54:54;;;;;;;2.15;1.42;;;;;;;7.48;86.01;100674.66;10333856;28;20053;-45
2023/02/02 06:59:55;;;;;;;3.35;1.80;;;;;;;7.53;85.25;100672.56;10344961;28;20705;-43
2023/02/02 07:04:58;;;;;;;5.25;1.90;;;;;;;7.53;83.92;100668.09;10343460;28;20052;-44
2023/02/02 07:09:59;;;;;;;6.30;1.85;;;;;;;7.55;83.84;100652.09;10338702;28;20049;-47
2023/02/02 07:15:01;;;;;;;5.88;2.13;;;;;;;7.60;83.82;100660.66;10345383;28;20076;-45
2023/02/02 07:20:03;;;;;;;4.18;2.40;;;;;;;7.58;82.27;100667.81;10343589;28;20131;-44
2023/02/02 07:25:06;;;;;;;6.30;2.22;;;;;;;7.56;81.92;100667.06;10335034;28;20117;-45
2023/02/02 07:30:08;;;;;;;5.47;2.22;;;;;;;7.60;81.80;100666.78;10349190;28;20061;-48
2023/02/02 07:35:10;;;;;;;5.45;2.30;;;;;;;7.63;80.86;100679.00;10346447;28;20056;-46
2023/02/02 07:40:11;;;;;;;6.65;2.58;;;;;;;7.67;81.19;100684.94;10340639;28;20060;-54
2023/02/02 07:45:14;;;;;;;8.43;2.30;;;;;;;7.70;80.48;100690.94;10342390;28;20061;-46
2023/02/02 07:50:36;;;;;;;6.50;1.95;;;;;;;7.70;81.19;100698.00;10344250;28;20945;-45
2023/02/02 07:55:37;;;;;;;4.45;2.33;;;;;;;7.67;82.96;100684.94;10338475;28;20115;-45
2023/02/02 08:00:39;;;;;;;5.63;1.98;;;;;;;7.69;82.13;100697.16;10332038;28;20049;-46
2023/02/02 08:05:41;;;;;;;7.25;2.15;;;;;;;7.64;81.71;100688.66;10341356;28;20049;-46
2023/02/02 08:10:49;;;;;;;5.85;1.70;;;;;;;7.58;81.83;100691.66;10338939;28;20049;-46
2023/02/02 08:15:51;;;;;;;5.78;2.53;;;;;;;7.62;81.53;100706.44;10340556;28;20048;-45
2023/02/02 08:20:52;;;;;;;3.88;1.95;;;;;;;7.68;81.41;100713.16;10341076;28;20052;-45
2023/02/02 08:26:14;;;;;;;3.50;1.60;;;;;;;7.68;80.80;100711.34;10335924;28;20052;-44
2023/02/02 08:31:25;;;;;;;6.55;2.40;;;;;;;7.85;92.48;100718.28;10339194;28;20053;-47
2023/02/02 08:36:28;;;;;;;4.22;2.38;;;;;;;8.32;85.67;100732.16;10332481;28;20489;-47
2023/02/02 08:41:31;;;;;;;5.63;2.00;;;;;;;8.37;78.63;100748.63;10338778;28;20050;-45
2023/02/02 08:46:32;;;;;;;4.15;1.75;;;;;;;8.09;78.73;100731.81;10335320;28;20050;-45
2023/02/02 08:51:34;;;;;;;5.63;1.98;;;;;;;7.94;78.99;100738.94;10333632;28;20096;-45
2023/02/02 08:56:35;;;;;;;6.55;2.72;;;;;;;7.97;79.27;100737.84;10332125;28;20057;-45
2023/02/02 09:01:37;;;;;;;5.15;1.95;;;;;;;8.09;78.76;100744.22;10340727;28;20057;-45
2023/02/02 09:06:39;;;;;;;4.63;1.77;;;;;;;8.06;78.15;100747.03;10338994;28;20992;-45
2023/02/02 09:11:42;;;;;;;7.53;2.10;;;;;;;8.07;78.04;100746.13;10349319;28;20052;-45
2023/02/02 09:16:43;;;;;;;6.90;2.05;;;;;;;8.03;78.30;100748.13;10350752;28;20045;-45
2023/02/02 09:21:45;;;;;;;5.93;1.70;;;;;;;7.93;78.36;100728.41;10348583;28;20087;-46
2023/02/02 09:26:46;;;;;;;4.05;1.90;;;;;;;8.12;78.10;100757.28;10352204;28;20045;-44
2023/02/02 09:31:48;;;;;;;3.47;1.60;;;;;;;8.12;77.39;100758.16;10345326;28;20064;-45
2023/02/02 09:36:50;;;;;;;7.38;1.77;;;;;;;8.16;77.52;100765.91;10345545;28;20061;-46
2023/02/02 09:42:33;;;;;;;3.70;1.45;;;;;;;8.14;76.62;100758.88;10345109;28;20053;-46
2023/02/02 09:47:46;;;;;;;5.53;1.70;;;;;;;8.17;77.37;100787.03;10312754;28;20060;-45
2023/02/02 09:53:16;;;;;;;6.13;1.90;;;;;;;8.10;78.45;100788.34;10341562;28;20053;-45
2023/02/02 09:58:29;;;;;;;4.00;1.92;;;;;;;8.13;78.63;100791.66;10339307;28;20050;-44
2023/02/02 10:03:44;;;;;;;3.00;1.45;;;;;;;8.04;78.84;100797.53;10342834;28;20045;-45
2023/02/02 10:08:52;;;;;;;5.47;2.97;;;;;;;8.16;79.57;100811.00;10341640;28;20057;-45
2023/02/02 10:13:58;;;;;;;5.07;1.55;;;;;;;8.18;79.77;100830.31;10343593;28;20052;-45
2023/02/02 10:19:02;;;;;;;9.23;2.42;;;;;;;8.29;79.56;100830.50;10344821;28;20053;-46
2023/02/02 10:24:03;;;;;;;5.90;1.90;;;;;;;8.30;79.47;100835.72;10348462;28;20057;-45
2023/02/02 10:29:23;;;;;;;2.97;1.48;;;;;;;8.23;80.10;100828.22;10344938;28;20125;-45
2023/02/02 10:34:32;;;;;;;5.00;1.63;;;;;;;8.38;79.44;100824.63;10347704;28;20084;-45
2023/02/02 10:40:09;;;;;;;4.75;1.25;;;;;;;8.53;79.38;100827.28;10343075;28;20127;-45
2023/02/02 10:45:16;;;;;;;4.28;1.48;;;;;;;8.55;78.42;100820.09;10341614;28;20159;-48
2023/02/02 10:50:19;;;;;;;2.28;1.42;;;;;;;8.68;79.07;100821.03;10342595;28;20799;-44
2023/02/02 10:55:31;;;;;;;4.07;1.88;;;;;;;8.67;78.48;100812.19;10339179;28;20092;-44
2023/02/02 11:00:46;;;;;;;3.55;1.20;;;;;;;8.79;78.04;100815.88;10330126;28;20045;-45
2023/02/02 11:11:23;;;;;;;4.18;1.20;;;;;;;8.88;77.10;100818.91;10339764;28;20973;-44
2023/02/02 11:16:28;;;;;;;3.20;0.85;;;;;;;8.96;77.43;100828.09;10344204;28;21761;-46
2023/02/02 11:21:52;;;;;;;2.40;1.10;;;;;;;9.23;76.17;100823.72;10341190;28;24809;-44
2023/02/02 11:26:58;;;;;;;3.22;1.55;;;;;;;9.04;76.58;100824.94;10342307;28;20053;-45
2023/02/02 11:32:19;;;;;;;1.60;0.80;;;;;;;8.89;78.43;100832.06;10338585;28;20107;-45
2023/02/02 11:37:21;;;;;;;3.22;1.45;;;;;;;8.82;78.90;100833.41;10344022;28;20059;-45
2023/02/02 11:42:23;;;;;;;2.88;0.82;;;;;;;8.78;79.52;100834.56;10343222;28;20048;-45
2023/02/02 11:47:29;;;;;;;3.72;0.98;;;;;;;8.77;80.37;100844.31;10334817;28;20411;-44
2023/02/02 11:52:32;;;;;;;2.35;1.15;;;;;;;8.73;80.70;100837.50;10333174;28;20045;-44
2023/02/02 11:57:33;;;;;;;4.47;1.58;;;;;;;8.83;81.35;100822.69;10336884;28;20064;-45
2023/02/02 12:02:34;;;;;;;4.28;0.98;;;;;;;8.91;80.98;100830.16;10337872;28;20057;-46
2023/02/02 12:07:36;;;;;;;1.50;0.68;;;;;;;8.85;80.89;100827.91;10340993;28;21428;-45
2023/02/02 12:12:46;;;;;;;1.95;0.90;;;;;;;9.04;79.35;100835.53;10343317;28;20049;-45
2023/02/02 12:17:55;;;;;;;3.00;1.42;;;;;;;8.96;78.87;100837.81;10342167;28;20057;-45
2023/02/02 12:23:18;;;;;;;4.85;1.45;;;;;;;9.02;78.85;100840.09;10341628;28;20615;-46
2023/02/02 12:28:53;;;;;;;2.47;1.25;;;;;;;9.16;77.63;100840.06;10342842;28;20053;-45
2023/02/02 12:34:10;;;;;;;2.70;0.90;;;;;;;9.12;77.30;100835.03;10338674;28;20187;-50
2023/02/02 12:39:19;;;;;;;2.45;0.75;;;;;;;9.00;77.70;100834.03;10341729;28;20128;-46
2023/02/02 12:44:49;;;;;;;2.17;0.63;;;;;;;8.99;78.92;100841.16;10345853;28;20052;-45
2023/02/02 12:50:03;;;;;;;2.42;1.00;;;;;;;9.13;78.66;100829.63;10345048;28;20061;-45
2023/02/02 12:55:23;;;;;;;1.83;1.08;;;;;;;9.09;78.47;100837.91;10342371;28;20400;-44
2023/02/02 13:00:41;;;;;;;1.25;0.90;;;;;;;9.07;78.19;100835.34;10340874;28;20114;-44
2023/02/02 13:06:11;;;;;;;2.72;0.90;;;;;;;9.06;77.96;100849.56;10341035;28;20203;-45
2023/02/02 13:11:30;;;;;;;2.55;1.10;;;;;;;9.17;78.32;100849.75;10346816;28;21558;-45
2023/02/02 13:16:35;;;;;;;2.67;0.80;;;;;;;9.31;78.22;100853.31;10341522;28;20377;-49
2023/02/02 13:21:39;;;;;;;3.15;1.20;;;;;;;9.17;78.45;100854.19;10346071;28;20069;-45
2023/02/02 13:26:45;;;;;;;4.43;1.00;;;;;;;9.27;78.30;100867.72;10343920;28;20486;-45
2023/02/02 13:31:56;;;;;;;1.98;0.80;;;;;;;9.12;77.54;100869.56;10345609;28;20045;-45
2023/02/02 13:37:24;;;;;;;3.35;0.68;;;;;;;9.15;78.11;100864.06;10347163;28;20111;-44
2023/02/02 13:42:37;;;;;;;0.98;0.65;;;;;;;9.15;78.54;100856.94;10340041;28;20093;-45
2023/02/02 13:47:47;;;;;;;2.17;0.70;;;;;;;9.36;77.86;100872.44;10339738;28;20434;-45
2023/02/02 13:53:17;;;;;;;2.88;1.10;;;;;;;9.44;77.51;100859.47;10340996;28;20045;-45
2023/02/02 13:58:40;;;;;;;2.17;0.77;;;;;;;9.44;76.81;100863.94;10339309;28;20403;-45
2023/02/02 14:03:50;;;;;;;1.42;1.02;;;;;;;9.45;77.06;100876.28;10334266;28;20126;-46
2023/02/02 14:09:03;;;;;;;1.88;0.60;;;;;;;9.28;77.39;100875.59;10336832;28;20132;-45
2023/02/02 14:14:33;;;;;;;2.17;0.80;;;;;;;9.45;77.17;100882.44;10327019;28;20644;-45
2023/02/02 14:19:35;;;;;;;2.28;0.63;;;;;;;9.41;76.20;100880.94;10338063;28;20057;-45
2023/02/02 14:24:36;;;;;;;1.08;0.50;;;;;;;9.42;76.45;100892.44;10333738;28;20052;-46
2023/02/02 14:29:43;;;;;;;1.67;0.93;;;;;;;9.84;74.96;100894.03;10333185;28;20123;-45
2023/02/02 14:34:48;;;;;;;1.27;0.63;;;;;;;9.54;75.08;100902.25;10333328;28;20427;-45
2023/02/02 14:40:04;;;;;;;1.25;0.68;;;;;;;9.63;75.38;100919.41;10337231;28;20531;-45
2023/02/02 14:45:09;;;;;;;2.63;0.90;;;;;;;9.71;75.35;100928.59;10332851;28;20046;-46
2023/02/02 14:50:18;;;;;;;1.02;0.70;;;;;;;9.63;75.20;100938.88;10339180;28;20088;-44
2023/02/02 14:55:20;;;;;;;1.73;0.60;;;;;;;9.46;76.23;100931.16;10344934;28;20150;-45
2023/02/02 15:00:26;;;;;;;1.55;0.47;;;;;;;9.38;77.08;100953.75;10322678;28;20742;-46
2023/02/02 15:05:28;;;;;;;1.98;0.75;;;;;;;9.36;78.40;100954.81;10335197;28;20536;-46
2023/02/02 15:10:53;;;;;;;1.05;0.60;;;;;;;9.29;79.18;100957.00;10343316;28;20083;-46
2023/02/02 15:16:12;;;;;;;2.80;0.60;;;;;;;9.23;79.78;100952.06;10344102;28;20053;-46
2023/02/02 15:21:20;;;;;;;2.15;0.40;;;;;;;9.11;79.33;100961.69;10342476;28;20045;-45
2023/02/02 15:26:29;;;;;;;2.67;0.70;;;;;;;9.25;79.04;100960.81;10344600;28;20506;-46
2023/02/02 15:31:45;;;;;;;1.05;0.70;;;;;;;9.32;78.77;100971.88;10343428;28;20045;-45
2023/02/02 15:36:50;;;;;;;2.33;1.17;;;;;;;9.36;78.38;100973.41;10337030;28;20576;-46
2023/02/02 15:42:51;;;;;;;3.15;0.70;;;;;;;9.39;77.26;100957.25;10338686;28;20064;-45
2023/02/02 15:47:22;;;;;;;2.20;0.70;;;;;;;9.46;76.21;100968.38;10335231;28;20880;-45
2023/02/02 15:52:31;;;;;;;1.95;0.90;;;;;;;9.35;75.71;100971.69;10339576;28;20147;-45
2023/02/02 15:57:36;;;;;;;0.98;0.50;;;;;;;9.35;76.44;100977.88;10345781;28;20087;-46
2023/02/02 16:02:41;;;;;;;2.65;0.85;;;;;;;9.36;75.86;100989.34;10342716;28;20669;-46
2023/02/02 16:07:43;;;;;;;4.32;0.95;;;;;;;9.27;75.52;101011.19;10346638;28;20057;-45
2023/02/02 16:12:57;;;;;;;2.20;0.75;;;;;;;9.30;75.16;101011.00;10349239;28;20059;-45
2023/02/02 16:18:12;;;;;;;2.25;0.80;;;;;;;9.38;75.18;101020.19;10345665;28;20070;-45
2023/02/02 16:23:20;;;;;;;2.45;0.80;;;;;;;9.36;74.56;101031.84;10347212;28;20049;-46
2023/02/02 16:28:22;;;;;;;3.30;0.95;;;;;;;9.39;74.40;101034.31;10343991;28;20766;-45
2023/02/02 16:33:34;;;;;;;1.90;0.82;;;;;;;9.44;73.38;101044.66;10341950;28;20789;-46
2023/02/02 16:38:36;;;;;;;1.73;0.63;;;;;;;9.36;73.54;101048.63;10344626;28;20045;-45
2023/02/02 16:43:40;;;;;;;2.45;0.90;;;;;;;9.29;73.30;101047.34;10345057;28;20530;-45
2023/02/02 16:48:55;;;;;;;2.40;1.17;;;;;;;9.25;73.23;101048.47;10344637;28;20214;-46
2023/02/02 16:54:19;;;;;;;1.42;0.77;;;;;;;9.26;73.10;101041.34;10336543;28;20195;-45
2023/02/02 16:59:22;;;;;;;4.32;1.10;;;;;;;9.28;72.72;101047.44;10340934;28;20053;-45
2023/02/02 17:04:28;;;;;;;2.05;1.05;;;;;;;9.20;72.90;101048.75;10340155;28;20056;-45
2023/02/02 17:09:39;;;;;;;2.75;1.00;;;;;;;9.22;72.55;101069.03;10345491;28;20064;-45
2023/02/02 17:15:16;;;;;;;1.90;1.30;;;;;;;9.27;72.47;101085.56;10337984;28;20057;-46
2023/02/02 17:20:18;;;;;;;2.33;0.73;;;;;;;9.35;72.74;101096.56;10330780;28;20049;-45
2023/02/02 17:25:28;;;;;;;5.60;2.20;;;;;;;9.37;72.15;101103.50;10339879;28;20138;-44
2023/02/02 17:30:30;;;;;;;2.75;1.13;;;;;;;9.39;72.38;101116.69;10340707;28;20103;-45
2023/02/02 17:35:31;;;;;;;2.47;1.35;;;;;;;9.35;71.58;101104.53;10340959;28;20049;-44
2023/02/02 17:40:54;;;;;;;2.03;1.20;;;;;;;9.30;71.63;101114.59;10342602;28;21143;-46
2023/02/02 17:45:56;;;;;;;3.65;1.20;;;;;;;9.36;71.31;101117.72;10331996;28;20097;-47
2023/02/02 17:50:58;;;;;;;5.13;1.40;;;;;;;9.35;70.88;101125.78;10346823;28;20053;-45
2023/02/02 17:55:59;;;;;;;2.30;0.98;;;;;;;9.31;71.31;101117.16;10341471;28;20059;-45
2023/02/02 18:01:01;;;;;;;4.65;1.13;;;;;;;9.34;70.97;101103.69;10344258;28;20811;-46
2023/02/02 18:06:03;;;;;;;2.78;1.30;;;;;;;9.30;70.34;101106.63;10344860;28;20501;-46
2023/02/02 18:11:04;;;;;;;3.13;1.40;;;;;;;9.30;70.99;101111.94;10346644;28;20053;-47
2023/02/02 18:16:06;;;;;;;5.55;1.60;;;;;;;9.20;70.98;101115.19;10346459;28;20099;-45
2023/02/02 18:21:10;;;;;;;3.05;1.30;;;;;;;9.24;71.22;101117.66;10349966;28;20602;-45
2023/02/02 18:26:20;;;;;;;5.60;1.42;;;;;;;9.18;71.12;101127.69;10350603;28;20061;-45
2023/02/02 18:31:22;;;;;;;2.45;1.10;;;;;;;9.13;71.09;101116.50;10349212;28;20050;-45
2023/02/02 18:36:24;;;;;;;3.88;1.20;;;;;;;9.18;70.91;101125.03;10347059;28;20060;-45
2023/02/02 18:41:26;;;;;;;4.60;1.30;;;;;;;9.17;71.05;101133.97;10346135;28;20735;-44
2023/02/02 18:46:27;;;;;;;3.88;1.85;;;;;;;9.19;70.87;101141.84;10347981;28;20059;-44
2023/02/02 18:51:30;;;;;;;3.78;1.20;;;;;;;9.14;70.67;101139.47;10347185;28;20053;-44
2023/02/02 18:56:31;;;;;;;3.05;1.52;;;;;;;8.98;71.15;101128.03;10347222;28;20046;-45
2023/02/02 19:01:33;;;;;;;4.03;1.95;;;;;;;8.99;70.71;101129.75;10361190;28;20049;-45
2023/02/02 19:11:55;;;;;;;2.65;0.93;;;;;;;8.96;70.53;101127.25;10344692;28;20057;-45
2023/02/02 19:17:15;;;;;;;3.72;1.20;;;;;;;8.85;70.73;101123.44;10349375;28;20057;-45
2023/02/02 19:22:19;;;;;;;2.80;1.30;;;;;;;8.91;70.44;101126.69;10341137;28;20049;-45
2023/02/02 19:27:23;;;;;;;5.77;1.97;;;;;;;8.83;70.25;101125.34;10343170;28;20071;-45
2023/02/02 19:32:29;;;;;;;4.35;1.95;;;;;;;8.84;70.86;101121.75;10341887;28;20510;-46
2023/02/02 19:37:32;;;;;;;3.88;1.65;;;;;;;8.87;70.79;101130.47;10347038;28;20569;-44
2023/02/02 19:42:39;;;;;;;3.17;1.55;;;;;;;8.89;70.27;101126.78;10342012;28;20130;-45
2023/02/02 19:47:43;;;;;;;8.02;2.75;;;;;;;8.87;70.46;101123.34;10339386;28;20148;-46
2023/02/02 19:52:46;;;;;;;5.50;1.67;;;;;;;8.82;70.29;101112.16;10338580;28;20064;-45
2023/02/02 19:57:48;;;;;;;6.25;2.60;;;;;;;8.75;70.55;101114.34;10340676;28;20522;-45
2023/02/02 20:03:00;;;;;;;3.95;1.58;;;;;;;8.74;71.09;101115.28;10333991;28;20057;-45
2023/02/02 20:08:34;;;;;;;5.38;1.70;;;;;;;8.70;71.21;101123.50;10333841;28;20136;-45
2023/02/02 20:13:47;;;;;;;6.22;2.00;;;;;;;8.62;71.60;101132.78;10341877;28;20212;-45
2023/02/02 20:18:54;;;;;;;5.45;1.95;;;;;;;8.67;71.60;101137.81;10339171;28;20772;-45
2023/02/02 20:23:55;;;;;;;4.43;1.83;;;;;;;8.61;71.69;101135.53;10340192;28;20054;-44
2023/02/02 20:28:59;;;;;;;6.13;2.15;;;;;;;8.58;71.65;101135.69;10336530;28;21653;-45
2023/02/02 20:34:16;;;;;;;3.90;2.07;;;;;;;8.55;72.15;101146.50;10340722;28;20148;-45
2023/02/02 20:39:25;;;;;;;6.85;3.45;;;;;;;8.38;72.10;101108.50;10337998;28;20579;-45
2023/02/02 20:44:28;;;;;;;6.50;2.22;;;;;;;8.59;72.03;101153.34;10336099;28;21176;-46
2023/02/02 20:49:30;;;;;;;6.28;2.30;;;;;;;8.66;71.96;101165.28;10335016;28;20106;-45
2023/02/02 20:54:33;;;;;;;3.90;1.55;;;;;;;8.62;71.76;101166.44;10334893;28;20053;-44
2023/02/02 20:59:34;;;;;;;5.13;2.80;;;;;;;8.62;72.15;101169.94;10333566;28;20053;-45
2023/02/02 21:04:36;;;;;;;5.85;2.20;;;;;;;8.62;72.36;101177.06;10339880;28;20045;-45
2023/02/02 21:09:37;;;;;;;5.50;2.53;;;;;;;8.56;72.47;101174.75;10338626;28;20836;-44
2023/02/02 21:14:39;;;;;;;5.57;1.95;;;;;;;8.61;72.66;101177.97;10337404;28;20061;-45
2023/02/02 21:19:40;;;;;;;5.63;1.70;;;;;;;8.68;72.77;101182.00;10342794;28;20062;-44
2023/02/02 21:24:42;;;;;;;6.72;2.22;;;;;;;8.65;72.82;101175.06;10338568;28;20734;-44
2023/02/02 21:29:43;;;;;;;8.57;2.42;;;;;;;8.52;72.66;101176.72;10346161;28;20504;-44
2023/02/02 21:34:44;;;;;;;3.78;2.05;;;;;;;8.35;73.39;101156.41;10341118;28;20068;-44
2023/02/02 21:39:50;;;;;;;5.00;2.05;;;;;;;8.38;74.25;101172.16;10340665;28;20064;-45
2023/02/02 21:45:18;;;;;;;6.05;2.95;;;;;;;8.40;74.31;101174.72;10342893;28;20053;-44
2023/02/02 21:50:46;;;;;;;6.10;2.13;;;;;;;8.33;74.51;101163.59;10338329;28;20452;-44
2023/02/02 21:55:51;;;;;;;5.07;2.15;;;;;;;8.31;74.89;101154.88;10336641;28;20136;-44
2023/02/02 22:00:56;;;;;;;4.10;1.95;;;;;;;8.24;75.31;101159.69;10341761;28;20045;-48
2023/02/02 22:06:17;;;;;;;5.00;2.00;;;;;;;8.24;75.83;101164.13;10335060;28;20049;-45
2023/02/02 22:11:34;;;;;;;7.25;2.30;;;;;;;8.28;75.98;101177.13;10342792;28;20061;-45
2023/02/02 22:16:40;;;;;;;3.53;2.38;;;;;;;8.31;75.66;101165.47;10340512;28;20829;-47
2023/02/02 22:21:41;;;;;;;5.93;2.60;;;;;;;8.18;75.97;101168.00;10345807;28;20527;-44
2023/02/02 22:26:42;;;;;;;4.53;2.22;;;;;;;8.12;76.65;101178.91;10344878;28;20038;-45
2023/02/02 22:31:44;;;;;;;6.95;2.13;;;;;;;8.14;76.73;101183.19;10337610;28;20559;-44
2023/02/02 22:36:45;;;;;;;6.65;2.00;;;;;;;8.18;76.78;101191.84;10341201;28;20060;-44
2023/02/02 22:41:47;;;;;;;3.65;1.80;;;;;;;8.14;76.63;101200.91;10345551;28;20079;-44
2023/02/02 22:46:48;;;;;;;4.68;2.28;;;;;;;8.15;77.05;101192.00;10339067;28;20054;-45
2023/02/02 22:51:49;;;;;;;3.90;2.55;;;;;;;8.14;76.84;101180.53;10334271;28;20053;-46
2023/02/02 22:56:54;;;;;;;5.18;2.60;;;;;;;8.09;77.08;101187.91;10331140;28;20060;-45
2023/02/02 23:01:55;;;;;;;8.73;3.22;;;;;;;8.05;78.11;101188.16;10335064;28;20050;-45
2023/02/02 23:06:57;;;;;;;5.97;2.60;;;;;;;8.14;77.53;101201.75;10340559;28;20144;-45
2023/02/02 23:11:58;;;;;;;5.85;2.72;;;;;;;8.06;78.26;101214.59;10339709;28;20085;-47
2023/02/02 23:16:59;;;;;;;7.13;2.35;;;;;;;7.97;78.14;101199.16;10341694;28;20050;-44
2023/02/02 23:22:01;;;;;;;5.07;2.10;;;;;;;8.07;78.45;101197.72;10343913;28;20127;-44
2023/02/02 23:27:02;;;;;;;6.70;2.20;;;;;;;7.99;78.88;101184.06;10335882;28;20123;-45
2023/02/02 23:32:05;;;;;;;5.47;2.47;;;;;;;8.05;78.88;101191.66;10340372;28;20049;-45
2023/02/02 23:37:07;;;;;;;4.63;2.78;;;;;;;8.06;78.57;101198.69;10349273;28;20064;-45
2023/02/02 23:42:09;;;;;;;4.13;2.20;;;;;;;8.09;78.94;101202.94;10349181;28;20069;-45
2023/02/02 23:47:10;;;;;;;5.03;2.45;;;;;;;8.11;78.55;101187.84;10343700;28;20072;-45
2023/02/02 23:52:12;;;;;;;9.68;3.90;;;;;;;8.10;78.86;101216.13;10342193;28;20057;-44
2023/02/02 23:57:14;;;;;;;4.75;3.20;;;;;;;8.10;79.14;101224.06;10342733;28;20049;-45
